North Springfield, Virginia
Current Conditions -  °F | °C
As of 6:58 AM on Friday 24 Oct 2014 (Local Time) from KDAA Reporting Station
Clear Clear  
Wind Chill: 53°   Ceiling: Unl
Heat Index: 53°   Visibility: 10mi
Dew Point: 43°   Wind: 12mph
Humidity: 68%   Direction: 290°WNW
Pressure: 29.97"   Gusts: NA
Location:  38.8058°N, 77.2071°W
Report Text: KDAA 241058Z AUTO 29010KT 10SM CLR 12/06 A2997 RMK AO2 SLP152 T01180060
Loading
Personal Weather Stations






























Interactive Weather Map
Tropical Storm Tracking
New forecast layout! Learn more

10-Day Weather Forecast

Advertisements
Track Severe Weather on mobile